Time;durP1;ratioP1;P1;durP2;ratioP2;P2;SDS_P1;SDS_P2;PMS_P1;PMS_P2;Temp;Humidity;BMP_temperature;BMP_pressure;BME280_temperature;BME280_humidity;BME280_pressure;Samples;Min_cycle;Max_cycle;Signal;HPM_P1;HPM_P2
2022/07/05 00:02:18;;;;;;;1.70;0.70;;;;;;;17.39;51.23;100862.41;5022729;28;20069;-69
2022/07/05 00:04:43;;;;;;;1.15;0.70;;;;;;;17.44;50.93;100863.16;5021700;28;20034;-69
2022/07/05 00:07:17;;;;;;;2.35;1.02;;;;;;;17.49;50.63;100863.03;5023787;28;20492;-69
2022/07/05 00:09:51;;;;;;;4.90;1.00;;;;;;;17.50;50.91;100865.66;5020147;28;20092;-69
2022/07/05 00:12:17;;;;;;;1.35;0.70;;;;;;;17.42;51.35;100865.00;5023468;28;20044;-69
2022/07/05 00:14:44;;;;;;;1.65;0.68;;;;;;;17.45;51.09;100861.38;5020884;28;20443;-69
2022/07/05 00:17:10;;;;;;;1.50;0.80;;;;;;;17.47;50.83;100868.38;5023402;28;20041;-69
2022/07/05 00:19:36;;;;;;;2.90;1.00;;;;;;;17.41;51.02;100868.56;5022183;28;20045;-70
2022/07/05 00:22:02;;;;;;;1.20;0.68;;;;;;;17.30;51.75;100868.03;5021438;28;20037;-69
2022/07/05 00:24:28;;;;;;;1.65;1.10;;;;;;;17.18;52.19;100863.88;5023189;28;20075;-69
2022/07/05 00:26:53;;;;;;;3.03;1.20;;;;;;;17.06;52.84;100859.78;5020754;28;20520;-70
2022/07/05 00:29:18;;;;;;;1.55;0.90;;;;;;;16.99;53.02;100865.34;5023891;28;20049;-70
2022/07/05 00:31:44;;;;;;;1.85;0.80;;;;;;;16.97;53.14;100853.81;5019141;28;20030;-70
2022/07/05 00:34:10;;;;;;;1.92;0.80;;;;;;;17.00;53.02;100854.63;5022740;28;20568;-70
2022/07/05 00:36:35;;;;;;;1.80;0.88;;;;;;;17.03;53.00;100870.56;5020915;28;20042;-70
2022/07/05 00:39:01;;;;;;;4.15;0.95;;;;;;;16.99;53.47;100870.66;5018776;28;20064;-70
2022/07/05 00:41:26;;;;;;;1.67;0.90;;;;;;;16.90;55.50;100873.56;5003943;28;20030;-69
2022/07/05 00:43:58;;;;;;;2.90;1.02;;;;;;;16.73;56.59;100871.31;5026851;28;20041;-70
2022/07/05 00:46:25;;;;;;;;;;;;;;;16.60;57.17;100874.31;5026736;28;20031;-69
2022/07/05 00:48:50;;;;;;;1.77;1.05;;;;;;;16.47;56.13;100872.00;5020940;28;19917;-70
2022/07/05 00:51:16;;;;;;;4.20;1.40;;;;;;;16.38;56.30;100870.44;5027042;28;20385;-70
2022/07/05 00:53:45;;;;;;;2.25;0.90;;;;;;;16.38;55.27;100875.78;5025848;28;20034;-70
2022/07/05 00:56:12;;;;;;;3.63;1.00;;;;;;;16.43;55.00;100877.41;5023564;28;20534;-69
2022/07/05 00:58:38;;;;;;;2.75;0.80;;;;;;;16.46;55.28;100872.91;5003553;28;20113;-70
2022/07/05 01:01:05;;;;;;;1.80;0.85;;;;;;;16.31;55.37;100868.84;5023672;28;20029;-69
2022/07/05 01:03:31;;;;;;;1.92;0.80;;;;;;;16.16;55.86;100873.59;5022014;28;20095;-70
2022/07/05 01:06:00;;;;;;;3.20;1.15;;;;;;;16.10;56.46;100875.56;5023053;28;20132;-70
2022/07/05 01:08:26;;;;;;;1.48;0.75;;;;;;;15.97;56.37;100877.63;5021695;28;20025;-70
2022/07/05 01:10:52;;;;;;;2.17;1.13;;;;;;;15.85;56.54;100867.22;5019072;28;20033;-70
2022/07/05 01:13:17;;;;;;;3.97;1.10;;;;;;;15.77;56.58;100865.66;5021509;28;20042;-70
2022/07/05 01:15:43;;;;;;;2.70;1.20;;;;;;;15.76;57.34;100871.84;5020926;28;20037;-70
2022/07/05 01:18:10;;;;;;;1.55;0.98;;;;;;;15.60;57.08;100862.44;5001608;28;20037;-70
2022/07/05 01:20:36;;;;;;;5.30;1.23;;;;;;;15.57;57.51;100865.16;5002120;28;20038;-69
2022/07/05 01:23:02;;;;;;;3.53;1.13;;;;;;;15.56;57.52;100863.41;5021706;28;20041;-70
2022/07/05 01:25:29;;;;;;;2.28;1.10;;;;;;;15.51;58.10;100857.28;5019739;28;20156;-69
2022/07/05 01:27:57;;;;;;;1.95;1.02;;;;;;;15.46;58.30;100856.53;5020650;28;20042;-70
2022/07/05 01:30:23;;;;;;;2.22;1.15;;;;;;;15.41;58.61;100858.44;5022753;28;20124;-69
2022/07/05 01:32:49;;;;;;;2.00;1.02;;;;;;;15.39;59.89;100862.91;5022874;28;20048;-69
2022/07/05 01:35:20;;;;;;;4.22;1.23;;;;;;;15.43;59.10;100856.59;5025930;28;20037;-69
2022/07/05 01:37:47;;;;;;;3.63;1.10;;;;;;;15.50;58.72;100850.25;5021543;28;20038;-70
2022/07/05 01:40:13;;;;;;;2.83;1.20;;;;;;;15.53;59.29;100860.81;5019581;28;20030;-69
2022/07/05 01:42:39;;;;;;;3.33;1.30;;;;;;;15.54;60.04;100857.25;5022354;28;20037;-70
2022/07/05 01:45:05;;;;;;;4.50;1.40;;;;;;;15.55;59.49;100864.31;5019821;28;20567;-69
2022/07/05 01:47:35;;;;;;;5.90;1.30;;;;;;;15.58;59.86;100861.59;5004088;28;20037;-70
2022/07/05 01:50:04;;;;;;;4.05;1.05;;;;;;;15.51;58.79;100854.63;5020475;28;20040;-69
2022/07/05 01:52:31;;;;;;;4.90;1.25;;;;;;;15.49;58.83;100854.69;5018990;28;20046;-69
2022/07/05 01:54:58;;;;;;;3.45;1.23;;;;;;;15.47;58.92;100858.28;5019384;28;20038;-69
2022/07/05 01:57:23;;;;;;;4.88;1.02;;;;;;;15.40;59.56;100856.66;5021584;28;20037;-69
2022/07/05 01:59:49;;;;;;;3.88;1.30;;;;;;;15.34;60.26;100857.66;5020996;28;20133;-69
2022/07/05 02:02:14;;;;;;;4.65;1.30;;;;;;;15.32;60.07;100860.34;5019829;28;20069;-70
2022/07/05 02:04:41;;;;;;;3.10;1.48;;;;;;;15.37;59.57;100859.38;5022179;28;20146;-69
2022/07/05 02:07:10;;;;;;;3.88;1.35;;;;;;;15.40;59.13;100861.97;5005406;28;20524;-70
2022/07/05 02:09:36;;;;;;;2.55;1.23;;;;;;;15.44;59.14;100861.88;5017018;28;20036;-70
2022/07/05 02:12:03;;;;;;;2.65;1.38;;;;;;;15.43;59.05;100861.91;4999245;28;20117;-69
2022/07/05 02:14:29;;;;;;;3.30;1.17;;;;;;;15.38;59.08;100866.44;5021634;28;20108;-69
2022/07/05 02:16:56;;;;;;;2.55;1.33;;;;;;;15.33;60.15;100866.56;5001659;28;20041;-70
2022/07/05 02:19:23;;;;;;;3.67;1.20;;;;;;;15.29;59.74;100868.38;5022519;28;20435;-69
2022/07/05 02:21:48;;;;;;;2.50;1.25;;;;;;;15.26;60.58;100862.25;5001457;28;20500;-69
2022/07/05 02:24:16;;;;;;;3.15;1.15;;;;;;;15.19;60.18;100874.78;5019373;28;20034;-69
2022/07/05 02:26:59;;;;;;;3.55;1.30;;;;;;;15.13;60.55;100870.47;5018574;28;20065;-69
2022/07/05 02:29:25;;;;;;;6.05;1.55;;;;;;;15.03;60.70;100871.56;5019883;28;20063;-69
2022/07/05 02:31:51;;;;;;;2.17;1.25;;;;;;;14.99;60.26;100866.34;5026319;28;20029;-70
2022/07/05 02:34:17;;;;;;;2.92;1.25;;;;;;;14.98;60.74;100873.44;5026077;28;20034;-69
2022/07/05 02:36:44;;;;;;;3.50;1.13;;;;;;;14.90;60.36;100878.88;5020946;28;20025;-70
2022/07/05 02:39:11;;;;;;;2.50;1.23;;;;;;;14.88;61.22;100871.84;5006171;28;20500;-70
2022/07/05 02:41:37;;;;;;;4.07;1.65;;;;;;;14.86;60.92;100879.00;5022837;28;20033;-69
2022/07/05 02:44:02;;;;;;;4.97;1.38;;;;;;;14.80;61.23;100877.31;5024176;28;20034;-68
2022/07/05 02:46:28;;;;;;;3.28;1.00;;;;;;;14.76;62.12;100872.09;5023517;28;20037;-69
2022/07/05 02:48:56;;;;;;;2.97;1.40;;;;;;;14.69;61.83;100871.31;5021860;28;20029;-69
2022/07/05 02:51:22;;;;;;;2.35;1.00;;;;;;;14.68;61.40;100872.22;5020414;28;20030;-70
2022/07/05 02:53:50;;;;;;;3.72;1.35;;;;;;;14.64;62.05;100859.88;5006651;28;20116;-70
2022/07/05 02:56:16;;;;;;;2.95;1.30;;;;;;;14.63;61.39;100863.44;5022662;28;20038;-68
2022/07/05 02:58:42;;;;;;;3.33;1.30;;;;;;;14.64;62.00;100867.84;5021931;28;20040;-70
2022/07/05 03:01:09;;;;;;;3.55;1.40;;;;;;;14.59;61.75;100869.72;5019816;28;20177;-69
2022/07/05 03:03:37;;;;;;;3.35;1.60;;;;;;;14.57;62.28;100868.88;5008348;28;20034;-69
2022/07/05 03:06:02;;;;;;;2.78;1.10;;;;;;;14.54;62.14;100871.56;5024677;28;20492;-70
2022/07/05 03:08:30;;;;;;;3.00;1.40;;;;;;;14.53;62.16;100868.03;5009277;28;20029;-69
2022/07/05 03:10:56;;;;;;;3.83;1.55;;;;;;;14.39;63.96;100873.56;5020907;28;20040;-70
2022/07/05 03:13:23;;;;;;;3.45;1.63;;;;;;;14.37;62.91;100879.78;5034652;28;20029;-69
2022/07/05 03:15:48;;;;;;;4.13;1.30;;;;;;;14.42;62.56;100884.13;5026208;28;20117;-69
2022/07/05 03:18:18;;;;;;;3.70;1.65;;;;;;;14.42;62.14;100876.16;5006314;28;20107;-69
2022/07/05 03:20:43;;;;;;;2.70;1.38;;;;;;;14.38;62.30;100881.53;5023380;28;20073;-69
2022/07/05 03:23:09;;;;;;;2.67;1.45;;;;;;;14.23;62.83;100880.03;5027972;28;20049;-70
2022/07/05 03:25:40;;;;;;;2.92;1.50;;;;;;;14.19;63.32;100883.59;5003883;28;20033;-69
2022/07/05 03:28:07;;;;;;;3.33;1.50;;;;;;;14.19;63.28;100884.47;5023116;28;20041;-70
2022/07/05 03:30:33;;;;;;;3.15;1.70;;;;;;;14.20;63.77;100895.97;5021747;28;20030;-69
2022/07/05 03:32:59;;;;;;;3.38;1.48;;;;;;;14.19;63.53;100899.53;5023124;28;20152;-69
2022/07/05 03:35:27;;;;;;;2.45;1.55;;;;;;;14.22;63.42;100907.44;5021800;28;20072;-70
2022/07/05 03:37:53;;;;;;;2.65;1.42;;;;;;;14.20;65.30;100912.81;5023273;28;20492;-69
2022/07/05 03:40:21;;;;;;;3.65;1.77;;;;;;;14.16;65.52;100910.19;5020959;28;20030;-69
2022/07/05 03:42:48;;;;;;;3.38;1.80;;;;;;;14.17;65.32;100909.28;5007820;28;20484;-69
2022/07/05 03:45:13;;;;;;;3.10;1.77;;;;;;;14.10;64.67;100913.84;5022809;28;20044;-70
2022/07/05 03:47:39;;;;;;;2.17;1.30;;;;;;;14.07;65.30;100920.94;5026716;28;20037;-70
2022/07/05 03:50:07;;;;;;;2.70;1.40;;;;;;;14.06;65.42;100920.06;5009998;28;20064;-70
2022/07/05 03:52:33;;;;;;;2.55;1.50;;;;;;;14.11;64.97;100920.00;5032102;28;20128;-69
2022/07/05 03:54:59;;;;;;;4.95;1.80;;;;;;;14.14;64.98;100922.63;5030588;28;20108;-70
2022/07/05 03:57:24;;;;;;;4.53;1.90;;;;;;;14.20;64.80;100926.06;5008427;28;20095;-70
2022/07/05 03:59:50;;;;;;;2.83;1.40;;;;;;;14.24;65.31;100921.59;5022204;28;20044;-70
2022/07/05 04:02:17;;;;;;;7.38;2.05;;;;;;;14.32;64.83;100924.13;5003169;28;20080;-69
2022/07/05 04:04:42;;;;;;;5.88;1.90;;;;;;;14.37;64.74;100928.47;5026011;28;20041;-70
2022/07/05 04:07:08;;;;;;;2.95;1.73;;;;;;;14.36;64.94;100921.41;5007397;28;20511;-69
2022/07/05 04:09:35;;;;;;;3.58;2.00;;;;;;;14.36;66.80;100925.84;5018879;28;20056;-69
2022/07/05 04:12:01;;;;;;;2.45;1.65;;;;;;;14.38;65.99;100924.00;5004405;28;20084;-70
2022/07/05 04:14:29;;;;;;;3.30;1.70;;;;;;;14.57;65.19;100922.88;5006725;28;20500;-69
2022/07/05 04:16:54;;;;;;;4.72;2.17;;;;;;;14.68;65.60;100928.88;5024107;28;20042;-69
2022/07/05 04:19:20;;;;;;;5.13;2.17;;;;;;;14.72;66.90;100935.00;5020984;28;20160;-69
2022/07/05 04:21:45;;;;;;;5.03;2.25;;;;;;;14.85;65.73;100925.91;5026230;28;20025;-69
2022/07/05 04:24:11;;;;;;;4.95;2.35;;;;;;;15.04;64.95;100928.28;5025378;28;20029;-70
2022/07/05 04:26:36;;;;;;;5.47;2.30;;;;;;;15.17;65.07;100932.47;5006564;28;20522;-69
2022/07/05 04:29:02;;;;;;;6.97;3.22;;;;;;;15.29;64.23;100929.53;5020105;28;20033;-70
2022/07/05 04:31:32;;;;;;;2.90;1.70;;;;;;;15.46;63.72;100939.88;5005441;28;20033;-69
2022/07/05 04:33:58;;;;;;;2.72;1.70;;;;;;;15.60;63.37;100946.69;5024116;28;20519;-70
2022/07/05 04:36:27;;;;;;;3.25;1.83;;;;;;;15.74;63.04;100940.19;5010928;28;20033;-70
2022/07/05 04:38:55;;;;;;;3.08;1.63;;;;;;;15.94;62.67;100938.91;5013190;28;20506;-69
2022/07/05 04:41:22;;;;;;;3.70;1.80;;;;;;;16.08;61.76;100944.78;5011975;28;20026;-70
2022/07/05 04:43:48;;;;;;;3.15;1.58;;;;;;;16.22;61.59;100944.50;5013640;28;20029;-70
2022/07/05 04:46:14;;;;;;;2.25;1.40;;;;;;;16.41;60.46;100937.81;5023469;28;20495;-69
2022/07/05 04:48:40;;;;;;;3.72;1.55;;;;;;;16.59;60.27;100941.84;5031649;28;20030;-70
2022/07/05 04:51:08;;;;;;;3.67;1.52;;;;;;;16.77;59.21;100947.63;5023459;28;20038;-70
2022/07/05 04:53:34;;;;;;;4.22;1.70;;;;;;;16.94;59.13;100947.22;5016683;28;20108;-69
2022/07/05 04:55:59;;;;;;;3.00;1.67;;;;;;;17.08;59.10;100945.97;5026561;28;20121;-70
2022/07/05 04:58:25;;;;;;;4.90;2.42;;;;;;;17.20;59.31;100941.22;5025297;28;20056;-69
2022/07/05 05:00:50;;;;;;;3.38;1.77;;;;;;;17.21;59.09;100940.28;5029054;28;20057;-69
2022/07/05 05:03:15;;;;;;;5.05;1.40;;;;;;;17.32;57.85;100938.22;5028931;28;20037;-69
2022/07/05 05:05:41;;;;;;;2.85;1.70;;;;;;;17.47;57.77;100951.09;5026634;28;20037;-70
2022/07/05 05:08:06;;;;;;;3.92;1.30;;;;;;;17.61;57.58;100950.75;5029363;28;20087;-69
2022/07/05 05:10:32;;;;;;;3.00;1.48;;;;;;;17.73;57.05;100944.16;5024055;28;20053;-69
2022/07/05 05:12:57;;;;;;;4.35;2.10;;;;;;;17.92;56.71;100953.44;5026647;28;20041;-69
2022/07/05 05:15:23;;;;;;;2.88;1.35;;;;;;;18.00;55.93;100953.19;5023730;28;20041;-69
2022/07/05 05:17:48;;;;;;;4.53;1.27;;;;;;;18.13;55.93;100953.66;5024479;28;20050;-69
2022/07/05 05:20:16;;;;;;;2.25;1.33;;;;;;;18.30;55.53;100942.47;5030243;28;20053;-69
2022/07/05 05:22:42;;;;;;;8.95;1.75;;;;;;;18.39;56.09;100951.09;5021027;28;20648;-69
2022/07/05 05:25:08;;;;;;;3.53;1.30;;;;;;;18.49;55.32;100948.97;5024671;28;20033;-69
2022/07/05 05:27:34;;;;;;;2.83;1.45;;;;;;;18.58;55.44;100955.84;5020267;28;20108;-69
2022/07/05 05:30:00;;;;;;;3.08;1.58;;;;;;;18.65;54.99;100944.00;5022031;28;20057;-69
2022/07/05 05:32:25;;;;;;;2.30;1.27;;;;;;;18.73;55.01;100950.00;5020547;28;20548;-70
2022/07/05 05:34:50;;;;;;;4.65;1.85;;;;;;;18.79;54.84;100947.13;5020627;28;20218;-69
2022/07/05 05:37:16;;;;;;;4.43;1.55;;;;;;;18.93;54.35;100948.47;5024737;28;20030;-69
2022/07/05 05:39:41;;;;;;;5.93;2.17;;;;;;;19.08;53.94;100944.41;5023287;28;20550;-69
2022/07/05 05:42:07;;;;;;;3.10;1.52;;;;;;;19.20;53.72;100943.94;5016343;28;20485;-70
2022/07/05 05:44:32;;;;;;;2.65;1.10;;;;;;;19.26;53.14;100941.94;5024593;28;20045;-69
2022/07/05 05:46:57;;;;;;;3.78;0.90;;;;;;;19.39;52.69;100950.41;5025533;28;20069;-70
2022/07/05 05:49:23;;;;;;;3.90;1.10;;;;;;;19.57;51.76;100954.22;5020854;28;20040;-70
2022/07/05 05:51:48;;;;;;;3.78;0.88;;;;;;;19.73;50.21;100953.66;5017928;28;20037;-69
2022/07/05 05:54:13;;;;;;;3.45;1.02;;;;;;;19.85;49.81;100950.53;5023793;28;20125;-70
2022/07/05 05:56:39;;;;;;;1.42;0.80;;;;;;;19.97;49.93;100952.75;5022576;28;20081;-69
2022/07/05 05:59:04;;;;;;;2.10;0.85;;;;;;;20.10;49.61;100948.66;5019716;28;20069;-69
2022/07/05 06:01:30;;;;;;;1.75;0.80;;;;;;;20.25;49.14;100962.38;5021310;28;20042;-70
2022/07/05 06:03:55;;;;;;;2.08;0.93;;;;;;;20.36;48.28;100961.03;5020776;28;20069;-70
2022/07/05 06:06:21;;;;;;;2.85;1.00;;;;;;;20.44;47.37;100963.41;5023492;28;20033;-69
2022/07/05 06:08:46;;;;;;;3.45;1.05;;;;;;;20.54;47.92;100962.13;5025815;28;20033;-70
2022/07/05 06:11:13;;;;;;;4.15;1.25;;;;;;;20.69;47.89;100962.44;5022617;28;20034;-70
2022/07/05 06:13:39;;;;;;;2.55;0.80;;;;;;;20.74;46.08;100958.59;5023412;28;20167;-70
2022/07/05 06:16:06;;;;;;;2.88;0.73;;;;;;;20.82;46.28;100963.66;5025485;28;20492;-70
2022/07/05 06:18:31;;;;;;;6.05;1.00;;;;;;;20.96;45.74;100961.28;5024628;28;20034;-70
2022/07/05 06:20:57;;;;;;;2.45;0.85;;;;;;;21.07;46.19;100962.63;5024939;28;20518;-70
2022/07/05 06:23:22;;;;;;;3.50;1.20;;;;;;;21.20;45.78;100958.47;5025540;28;20037;-69
2022/07/05 06:25:47;;;;;;;2.33;0.60;;;;;;;21.26;45.18;100968.94;5028268;28;20042;-69
2022/07/05 06:28:13;;;;;;;3.13;0.82;;;;;;;21.40;44.65;100963.84;5025912;28;20037;-69
2022/07/05 06:30:39;;;;;;;4.15;0.80;;;;;;;21.47;44.50;100967.16;5023610;28;20048;-70
2022/07/05 06:33:05;;;;;;;1.42;0.80;;;;;;;21.59;44.14;100965.75;5024183;28;20467;-70
2022/07/05 06:35:31;;;;;;;4.13;0.70;;;;;;;21.63;43.73;100970.88;5024929;28;20120;-69
2022/07/05 06:38:01;;;;;;;1.13;0.50;;;;;;;21.75;43.58;100972.16;5023181;28;20420;-70
2022/07/05 06:40:29;;;;;;;3.35;0.90;;;;;;;21.92;43.14;100970.50;5022783;28;20121;-70
2022/07/05 06:42:58;;;;;;;2.38;0.80;;;;;;;22.06;43.34;100970.72;5024268;28;20041;-70
2022/07/05 06:45:30;;;;;;;4.43;0.90;;;;;;;22.20;42.82;100968.31;5004223;28;20131;-69
2022/07/05 06:47:58;;;;;;;5.97;1.13;;;;;;;22.36;42.86;100970.25;5025626;28;20033;-70
2022/07/05 06:50:24;;;;;;;2.97;0.73;;;;;;;22.44;42.25;100965.38;5023151;28;20030;-70
2022/07/05 06:52:49;;;;;;;4.55;0.70;;;;;;;22.49;41.86;100969.59;5023967;28;20042;-70
2022/07/05 06:55:15;;;;;;;1.92;0.90;;;;;;;22.62;42.30;100964.47;5025203;28;20040;-70
2022/07/05 06:57:40;;;;;;;14.40;1.17;;;;;;;22.69;41.98;100965.91;5021785;28;20033;-70
2022/07/05 07:00:06;;;;;;;3.20;1.27;;;;;;;22.83;42.05;100967.03;5024098;28;20042;-70
2022/07/05 07:02:32;;;;;;;2.83;1.17;;;;;;;22.87;41.61;100960.53;5020691;28;20038;-70
2022/07/05 07:04:57;;;;;;;2.10;0.77;;;;;;;22.94;39.62;100964.69;5023793;28;20412;-70
2022/07/05 07:10:06;;;;;;;2.05;0.82;;;;;;;23.10;39.11;100960.28;5025410;28;20426;-70
2022/07/05 07:12:32;;;;;;;0.68;0.47;;;;;;;23.20;38.74;100966.06;5022672;28;20121;-70
2022/07/05 07:14:57;;;;;;;2.20;1.13;;;;;;;23.29;39.03;100964.69;5022414;28;20559;-70
2022/07/05 07:17:25;;;;;;;3.25;0.95;;;;;;;23.41;39.23;100959.53;5021714;28;20038;-70
2022/07/05 07:19:51;;;;;;;1.20;0.75;;;;;;;23.44;38.55;100963.91;5023922;28;20033;-70
2022/07/05 07:22:16;;;;;;;1.73;0.63;;;;;;;23.46;39.15;100967.38;5019461;28;20542;-69
2022/07/05 07:24:41;;;;;;;1.42;0.70;;;;;;;23.55;38.40;100960.63;5020538;28;20045;-70
2022/07/05 07:27:07;;;;;;;2.40;0.77;;;;;;;23.61;37.70;100963.00;5024977;28;20037;-70
2022/07/05 07:29:38;;;;;;;0.85;0.30;;;;;;;23.56;36.91;100968.66;5025433;28;20041;-70
2022/07/05 07:32:06;;;;;;;1.90;0.60;;;;;;;23.66;37.50;100962.75;5026550;28;20041;-70
2022/07/05 07:34:32;;;;;;;3.20;1.00;;;;;;;23.76;37.30;100954.13;5020645;28;20030;-69
2022/07/05 07:36:58;;;;;;;1.55;0.85;;;;;;;23.86;36.67;100959.00;5022735;28;20041;-70
2022/07/05 07:39:25;;;;;;;1.88;0.70;;;;;;;23.81;36.35;100952.03;5025775;28;20084;-70
2022/07/05 07:41:50;;;;;;;2.60;0.68;;;;;;;23.74;36.39;100958.72;5023748;28;20091;-70
2022/07/05 07:44:16;;;;;;;1.67;0.60;;;;;;;23.84;36.84;100951.00;5021055;28;20042;-70
2022/07/05 07:46:42;;;;;;;4.03;0.70;;;;;;;23.96;36.24;100947.63;5023689;28;20059;-70
2022/07/05 07:49:08;;;;;;;0.65;0.43;;;;;;;24.04;36.77;100942.69;5020642;28;20038;-70
2022/07/05 07:51:34;;;;;;;1.30;0.50;;;;;;;24.15;35.79;100949.31;5025381;28;20080;-70
2022/07/05 07:53:59;;;;;;;1.92;0.70;;;;;;;24.22;35.44;100942.63;4989973;28;1026724;-70
2022/07/05 07:56:25;;;;;;;1.80;0.60;;;;;;;24.26;35.66;100941.47;5026797;28;20470;-70
2022/07/05 07:58:50;;;;;;;1.65;0.50;;;;;;;24.28;35.20;100943.13;5023690;28;20044;-70
2022/07/05 08:01:16;;;;;;;2.40;0.65;;;;;;;24.31;34.59;100939.38;5024263;28;20044;-70
2022/07/05 08:03:42;;;;;;;1.10;0.52;;;;;;;24.38;35.05;100939.91;5025280;28;20049;-70
2022/07/05 08:06:10;;;;;;;1.60;0.57;;;;;;;24.46;35.20;100938.53;5025061;28;20484;-70
2022/07/05 08:08:36;;;;;;;1.90;0.70;;;;;;;24.44;35.14;100937.78;5027481;28;20116;-70
2022/07/05 08:11:02;;;;;;;4.50;0.80;;;;;;;24.46;34.63;100937.66;5023241;28;20160;-69
2022/07/05 08:13:27;;;;;;;2.60;0.52;;;;;;;24.52;34.66;100929.22;5021531;28;20048;-70
2022/07/05 08:15:52;;;;;;;1.08;0.50;;;;;;;24.52;34.61;100941.84;5023260;28;20471;-70
2022/07/05 08:23:46;;;;;;;3.45;0.77;;;;;;;24.55;34.55;100952.44;5019799;28;20132;-70
2022/07/05 08:26:11;;;;;;;0.75;0.45;;;;;;;24.43;34.41;100948.63;5022009;28;20160;-70
2022/07/05 08:28:37;;;;;;;1.10;0.50;;;;;;;24.52;34.24;100944.53;5025149;28;20048;-70
2022/07/05 08:31:02;;;;;;;1.85;0.50;;;;;;;24.57;32.63;100945.13;5026434;28;20041;-69
2022/07/05 08:33:27;;;;;;;1.60;0.50;;;;;;;24.63;33.16;100939.41;5027088;28;20140;-70
2022/07/05 08:35:53;;;;;;;2.38;0.43;;;;;;;24.70;33.44;100941.63;5021974;28;20407;-70
2022/07/05 08:38:18;;;;;;;1.77;0.50;;;;;;;24.69;32.65;100939.91;5021005;28;20433;-70
2022/07/05 08:40:47;;;;;;;0.85;0.40;;;;;;;24.73;33.37;100939.72;5023136;28;20044;-70
2022/07/05 08:43:14;;;;;;;4.05;0.60;;;;;;;24.86;33.04;100943.44;5019195;28;20038;-70
2022/07/05 08:45:43;;;;;;;3.35;0.45;;;;;;;25.02;32.04;100941.56;5022518;28;20081;-69
2022/07/05 08:48:09;;;;;;;1.75;0.52;;;;;;;24.92;31.80;100934.97;5023825;28;20037;-70
2022/07/05 08:50:36;;;;;;;1.77;0.50;;;;;;;25.07;32.08;100944.88;5023013;28;20049;-70
2022/07/05 08:53:03;;;;;;;0.88;0.30;;;;;;;25.23;31.17;100942.13;5017546;28;20140;-69
2022/07/05 08:55:31;;;;;;;1.45;0.32;;;;;;;25.21;31.54;100940.50;5019511;28;20036;-70
2022/07/05 08:57:56;;;;;;;1.10;0.43;;;;;;;25.29;31.41;100943.59;5025798;28;20411;-70
2022/07/05 09:00:22;;;;;;;1.52;0.40;;;;;;;25.19;31.90;100939.72;5022283;28;20026;-70
2022/07/05 09:02:48;;;;;;;1.23;0.60;;;;;;;25.31;31.36;100937.13;5021878;28;20632;-70
2022/07/05 09:05:15;;;;;;;0.65;0.40;;;;;;;25.51;31.20;100937.72;5022165;28;20056;-70
2022/07/05 09:07:48;;;;;;;1.27;0.60;;;;;;;25.49;30.54;100939.63;5025369;28;20034;-70
2022/07/05 09:10:14;;;;;;;1.13;0.40;;;;;;;25.47;30.08;100941.59;5024794;28;20029;-70
2022/07/05 09:12:40;;;;;;;2.08;0.30;;;;;;;25.55;30.10;100941.97;5025293;28;20045;-71
2022/07/05 09:15:05;;;;;;;1.58;0.40;;;;;;;25.66;29.92;100931.34;5027810;28;20124;-70
2022/07/05 09:17:31;;;;;;;3.22;0.70;;;;;;;25.72;29.07;100949.88;5023514;28;20036;-70
2022/07/05 09:20:11;;;;;;;1.27;0.45;;;;;;;25.94;28.41;100946.75;5026166;28;20037;-70
2022/07/05 09:22:47;;;;;;;0.98;0.50;;;;;;;26.23;28.94;100944.84;5021922;28;20167;-70
2022/07/05 09:25:18;;;;;;;0.88;0.40;;;;;;;26.33;27.83;100939.72;5023012;28;20033;-70
2022/07/05 09:27:58;;;;;;;1.60;0.40;;;;;;;26.73;27.55;100934.38;5025385;28;20026;-70
2022/07/05 09:30:32;;;;;;;3.38;0.60;;;;;;;27.02;27.62;100916.13;5022758;28;20131;-70
2022/07/05 09:33:09;;;;;;;6.05;1.63;;;;;;;27.20;28.48;100942.97;5022991;28;20090;-70
2022/07/05 09:35:37;;;;;;;1.52;0.52;;;;;;;26.84;28.42;100920.09;5026092;28;20179;-70
2022/07/05 09:38:17;;;;;;;2.78;0.60;;;;;;;26.96;29.26;100924.69;5022907;28;20034;-70
2022/07/05 09:40:51;;;;;;;1.65;0.57;;;;;;;26.83;28.43;100919.25;5025329;28;20415;-70
2022/07/05 09:43:19;;;;;;;1.00;0.50;;;;;;;26.67;28.92;100930.25;5022422;28;20033;-70
2022/07/05 09:45:55;;;;;;;1.30;0.40;;;;;;;26.20;29.65;100936.94;5019524;28;20034;-70
2022/07/05 09:48:20;;;;;;;1.77;0.50;;;;;;;26.10;29.54;100933.09;5026567;28;20033;-71
2022/07/05 09:50:48;;;;;;;0.55;0.40;;;;;;;26.23;28.72;100933.16;5028589;28;20033;-70
2022/07/05 09:53:14;;;;;;;1.10;0.50;;;;;;;26.53;29.59;100937.56;5021439;28;20492;-70
2022/07/05 09:55:40;;;;;;;0.77;0.30;;;;;;;27.01;28.76;100927.97;5023986;28;20073;-71
2022/07/05 09:58:06;;;;;;;1.42;0.60;;;;;;;27.45;27.95;100929.41;5026058;28;20147;-71
2022/07/05 10:00:31;;;;;;;2.63;1.13;;;;;;;27.61;28.28;100915.63;5023452;28;20056;-71
2022/07/05 10:03:03;;;;;;;3.35;0.50;;;;;;;27.67;27.32;100923.34;5021918;28;20503;-71
2022/07/05 10:05:30;;;;;;;0.95;0.30;;;;;;;27.21;27.33;100933.84;5023229;28;20037;-71
2022/07/05 10:07:59;;;;;;;1.48;0.50;;;;;;;26.85;27.70;100932.66;5019506;28;20084;-70
2022/07/05 10:10:28;;;;;;;0.50;0.35;;;;;;;26.86;27.78;100939.84;5021048;28;20040;-71
2022/07/05 10:13:02;;;;;;;4.57;0.60;;;;;;;27.27;27.50;100930.72;5021928;28;20057;-71
2022/07/05 10:15:34;;;;;;;2.58;0.55;;;;;;;27.57;26.86;100929.53;5026228;28;20514;-71
2022/07/05 10:18:04;;;;;;;0.98;0.40;;;;;;;27.38;27.26;100921.81;5020256;28;20495;-71
2022/07/05 10:20:36;;;;;;;0.75;0.35;;;;;;;27.36;27.45;100930.06;5019782;28;20140;-71
2022/07/05 10:23:02;;;;;;;0.90;0.40;;;;;;;27.67;28.09;100933.34;5019592;28;20061;-71
2022/07/05 10:25:28;;;;;;;0.75;0.40;;;;;;;27.89;27.00;100925.41;5023726;28;20025;-71
2022/07/05 10:27:54;;;;;;;2.50;1.00;;;;;;;28.01;27.50;100917.34;5024717;28;20044;-71
2022/07/05 10:30:22;;;;;;;2.90;0.70;;;;;;;28.47;26.61;100922.09;5021640;28;20030;-71
2022/07/05 10:32:49;;;;;;;0.45;0.35;;;;;;;28.48;26.10;100926.53;5021884;28;20033;-71
2022/07/05 10:35:16;;;;;;;3.13;0.45;;;;;;;28.38;26.55;100919.06;5015235;28;20072;-71
2022/07/05 10:37:42;;;;;;;1.23;0.45;;;;;;;28.16;26.34;100922.53;5025234;28;20029;-71
2022/07/05 10:40:08;;;;;;;0.70;0.40;;;;;;;27.95;27.31;100924.09;5022795;28;20091;-71
2022/07/05 10:42:37;;;;;;;1.85;0.52;;;;;;;27.11;28.12;100925.47;5018827;28;20037;-71
2022/07/05 10:45:03;;;;;;;1.80;0.60;;;;;;;26.78;28.77;100931.38;5022330;28;20069;-71
2022/07/05 10:47:29;;;;;;;1.98;0.45;;;;;;;26.53;29.15;100933.00;5019592;28;20068;-71
2022/07/05 10:50:05;;;;;;;3.90;0.45;;;;;;;26.44;29.49;100931.75;5020643;28;20037;-72
2022/07/05 10:52:30;;;;;;;2.05;0.57;;;;;;;26.97;28.52;100926.41;5022964;28;20037;-72
2022/07/05 10:55:16;;;;;;;1.70;0.50;;;;;;;27.28;29.13;100932.47;5029030;28;20125;-72
2022/07/05 10:57:41;;;;;;;3.95;0.55;;;;;;;27.31;28.41;100929.53;5008063;28;20050;-71
2022/07/05 11:00:09;;;;;;;1.63;0.70;;;;;;;27.32;28.11;100931.25;5026422;28;20454;-73
2022/07/05 11:02:35;;;;;;;3.08;0.55;;;;;;;27.62;28.05;100924.66;5030058;28;20074;-72
2022/07/05 11:05:01;;;;;;;4.63;0.82;;;;;;;27.88;26.54;100907.41;5027152;28;20025;-72
2022/07/05 11:07:59;;;;;;;1.23;0.55;;;;;;;28.32;27.81;100905.97;5022959;28;20500;-72
2022/07/05 11:10:25;;;;;;;2.05;0.60;;;;;;;28.39;27.84;100901.78;5022106;28;20521;-72
2022/07/05 11:12:50;;;;;;;1.00;0.55;;;;;;;28.39;28.02;100901.78;5026299;28;20053;-72
2022/07/05 11:15:16;;;;;;;1.67;0.40;;;;;;;28.12;27.94;100914.72;5025444;28;20108;-72
2022/07/05 11:17:43;;;;;;;3.03;0.60;;;;;;;28.10;28.24;100914.81;5023823;28;20034;-72
2022/07/05 11:20:28;;;;;;;2.80;0.50;;;;;;;28.06;27.69;100920.56;5025807;28;20064;-72
2022/07/05 11:23:11;;;;;;;5.65;0.60;;;;;;;27.94;27.60;100906.94;5025149;28;20171;-73
2022/07/05 11:25:42;;;;;;;2.30;0.38;;;;;;;27.96;27.29;100909.56;5026406;28;20512;-73
2022/07/05 11:28:16;;;;;;;3.15;1.25;;;;;;;27.67;27.84;100909.78;5029166;28;20033;-73
2022/07/05 11:31:01;;;;;;;2.53;0.50;;;;;;;27.84;27.26;100907.72;5027494;28;20044;-73
2022/07/05 11:33:32;;;;;;;2.03;0.43;;;;;;;28.04;27.15;100912.56;5028478;28;20041;-73
2022/07/05 11:35:58;;;;;;;;;;;;;;;28.07;25.31;100912.34;5023146;28;20042;-73